Time;durP1;ratioP1;P1;durP2;ratioP2;P2;SDS_P1;SDS_P2;PMS_P1;PMS_P2;Temp;Humidity;BMP_temperature;BMP_pressure;BME280_temperature;BME280_humidity;BME280_pressure;Samples;Min_cycle;Max_cycle;Signal;HPM_P1;HPM_P2
2022/11/04 00:02:01;;;;;;;6.03;3.53;;;11.30;99.90;;;9.80;100.00;99259.06;5008798;28;20029;-79
2022/11/04 00:04:27;;;;;;;;;;;11.30;99.90;;;9.87;100.00;99257.03;5013332;28;20025;-77
2022/11/04 00:06:55;;;;;;;8.43;3.78;;;11.30;99.90;;;9.96;100.00;99262.06;5015626;28;19913;-78
2022/11/04 00:09:27;;;;;;;8.02;3.78;;;11.30;99.90;;;9.99;100.00;99256.13;5012529;28;20102;-77
2022/11/04 00:14:37;;;;;;;6.07;3.30;;;11.40;99.90;;;10.08;100.00;99249.22;5008872;28;20029;-78
2022/11/04 00:17:23;;;;;;;5.57;2.97;;;11.40;99.90;;;10.10;100.00;99252.50;5013603;28;20064;-79
2022/11/04 00:33:56;;;;;;;7.68;3.40;;;11.50;99.90;;;10.21;100.00;99253.47;5018592;28;20029;-78
2022/11/04 00:36:24;;;;;;;4.97;3.10;;;11.60;99.90;;;10.13;100.00;99253.91;5013594;28;20476;-78
2022/11/04 00:38:50;;;;;;;6.03;3.40;;;11.50;99.90;;;10.03;100.00;99249.09;5013846;28;20052;-78
2022/11/04 00:41:28;;;;;;;7.88;4.55;;;11.40;99.90;;;9.88;100.00;99246.94;5012359;28;20037;-77
2022/11/04 00:43:58;;;;;;;;;;;11.30;99.90;;;9.77;100.00;99245.94;5015797;28;20029;-76
2022/11/04 00:46:25;;;;;;;7.68;3.72;;;11.20;99.90;;;9.67;100.00;99238.41;5016706;28;19971;-77
2022/11/04 00:48:51;;;;;;;7.73;3.93;;;11.10;99.90;;;9.67;100.00;99243.88;5015347;28;20057;-77
2022/11/04 00:51:21;;;;;;;8.23;3.50;;;11.00;99.90;;;9.67;100.00;99243.06;5014585;28;20061;-79
2022/11/04 00:53:47;;;;;;;7.90;3.97;;;11.00;99.90;;;9.69;100.00;99247.19;5014569;28;20080;-78
2022/11/04 00:56:13;;;;;;;7.53;4.40;;;11.10;99.90;;;9.72;100.00;99241.25;5013292;28;20061;-78
2022/11/04 00:58:39;;;;;;;6.25;3.50;;;11.10;99.90;;;9.82;100.00;99235.16;5016282;28;20476;-76
2022/11/04 01:01:17;;;;;;;7.80;3.72;;;11.10;99.90;;;9.88;100.00;99234.16;5013700;28;20111;-77
2022/11/04 01:03:48;;;;;;;5.72;3.60;;;11.20;99.90;;;9.87;100.00;99243.41;5031176;28;20091;-78
2022/11/04 01:06:15;;;;;;;5.75;3.58;;;11.20;99.90;;;9.93;100.00;99239.69;5014368;28;20033;-78
2022/11/04 01:08:41;;;;;;;7.47;3.90;;;11.30;99.90;;;9.89;100.00;99238.53;5010627;28;20045;-79
2022/11/04 01:11:09;;;;;;;6.82;4.20;;;11.30;99.90;;;9.81;100.00;99238.94;5013055;28;20092;-80
2022/11/04 01:13:36;;;;;;;7.53;4.10;;;11.20;99.90;;;9.76;100.00;99244.28;5014005;28;20116;-79
2022/11/04 01:16:06;;;;;;;8.75;4.05;;;11.20;99.90;;;9.76;100.00;99252.47;5014560;28;20179;-78
2022/11/04 01:18:32;;;;;;;10.27;4.03;;;11.10;99.90;;;9.69;100.00;99252.66;5013797;28;20160;-78
2022/11/04 01:21:04;;;;;;;8.73;3.80;;;11.10;99.90;;;9.67;100.00;99253.94;5011798;28;20030;-78
2022/11/04 01:23:30;;;;;;;7.03;3.92;;;11.10;99.90;;;9.63;100.00;99253.59;5015006;28;20040;-77
2022/11/04 01:25:56;;;;;;;7.28;4.30;;;11.00;99.90;;;9.50;100.00;99254.72;5014939;28;20064;-77
2022/11/04 01:28:22;;;;;;;8.07;4.60;;;10.90;99.90;;;9.43;100.00;99263.06;5017158;28;20029;-77
2022/11/04 01:30:48;;;;;;;8.15;4.38;;;10.80;99.90;;;9.45;100.00;99271.81;5014287;28;20033;-77
2022/11/04 01:33:14;;;;;;;9.85;4.95;;;10.80;99.90;;;9.37;100.00;99280.34;5014371;28;20041;-77
2022/11/04 01:35:39;;;;;;;8.30;4.78;;;10.80;99.90;;;9.27;100.00;99272.81;5016085;28;20400;-78
2022/11/04 01:38:05;;;;;;;10.43;5.68;;;10.70;99.90;;;9.20;100.00;99272.97;5013894;28;20037;-77
2022/11/04 01:40:37;;;;;;;12.27;5.13;;;10.60;99.90;;;9.18;100.00;99261.50;5012827;28;20037;-77
2022/11/04 01:43:05;;;;;;;10.90;5.45;;;10.60;99.90;;;9.12;100.00;99258.91;5016392;28;20029;-78
2022/11/04 01:45:31;;;;;;;9.57;5.57;;;10.50;99.90;;;9.11;100.00;99257.25;5010920;28;20503;-78
2022/11/04 01:48:13;;;;;;;10.20;5.70;;;10.50;99.90;;;9.11;100.00;99258.06;5013399;28;20068;-78
2022/11/04 01:50:39;;;;;;;12.80;6.32;;;10.50;99.90;;;9.10;100.00;99261.84;5015620;28;20117;-78
2022/11/04 01:53:17;;;;;;;10.93;6.15;;;10.50;99.90;;;9.13;100.00;99261.38;5013274;28;20331;-79
2022/11/04 01:55:54;;;;;;;10.93;5.97;;;10.50;99.90;;;9.16;100.00;99265.50;5015699;28;20589;-78
2022/11/04 01:58:27;;;;;;;11.15;5.95;;;10.50;99.90;;;9.18;100.00;99266.09;5018327;28;20412;-81
2022/11/04 02:00:53;;;;;;;8.43;5.32;;;10.50;99.90;;;9.19;100.00;99281.34;5010896;28;20026;-81
2022/11/04 02:03:39;;;;;;;12.07;5.60;;;10.50;99.90;;;9.22;100.00;99275.44;5010406;28;20052;-83
2022/11/04 02:06:07;;;;;;;12.52;5.65;;;10.60;99.90;;;9.21;100.00;99274.63;5012380;28;20049;-80
2022/11/04 02:08:34;;;;;;;12.85;6.55;;;10.60;99.90;;;9.23;100.00;99268.91;5015304;28;20076;-81
2022/11/04 02:11:03;;;;;;;9.63;5.90;;;10.60;99.90;;;9.22;100.00;99264.53;5016286;28;20033;-81
2022/11/04 02:13:35;;;;;;;10.20;5.47;;;10.60;99.90;;;9.18;100.00;99247.88;5010309;28;20108;-82
2022/11/04 02:16:10;;;;;;;11.32;5.72;;;10.60;99.90;;;9.19;100.00;99244.09;5014192;28;20046;-81
2022/11/04 02:19:10;;;;;;;10.25;6.03;;;10.60;99.90;;;9.20;100.00;99247.63;5013885;28;20038;-81
2022/11/04 02:21:53;;;;;;;10.15;5.97;;;10.60;99.90;;;9.18;100.00;99258.78;5012710;28;20037;-81
2022/11/04 02:24:34;;;;;;;9.93;6.13;;;10.60;99.90;;;9.17;100.00;99257.13;5013552;28;20637;-81
2022/11/04 02:27:24;;;;;;;10.13;6.10;;;10.60;99.90;;;9.17;100.00;99250.84;5020473;28;20384;-80
2022/11/04 02:30:18;;;;;;;10.70;5.45;;;10.50;99.90;;;9.19;100.00;99244.09;5014934;28;20037;-79
2022/11/04 02:33:13;;;;;;;11.02;5.78;;;10.60;99.90;;;9.18;100.00;99241.59;5015207;28;20057;-77
2022/11/04 02:36:25;;;;;;;10.15;5.30;;;10.60;99.90;;;9.14;100.00;99232.28;5010718;28;20034;-78
2022/11/04 02:39:07;;;;;;;11.60;5.95;;;10.60;99.90;;;9.16;100.00;99230.16;5016755;28;20030;-80
2022/11/04 02:41:45;;;;;;;11.55;6.10;;;10.50;99.90;;;9.19;100.00;99233.22;5012971;28;20029;-80
2022/11/04 02:44:26;;;;;;;9.23;5.73;;;10.60;99.90;;;9.20;100.00;99231.31;5015940;28;20487;-79
2022/11/04 02:47:18;;;;;;;12.00;6.07;;;10.60;99.90;;;9.15;100.00;99214.88;5010329;28;20040;-78
2022/11/04 02:49:59;;;;;;;10.88;6.03;;;10.50;99.90;;;9.16;100.00;99238.31;5010637;28;20030;-80
2022/11/04 02:52:38;;;;;;;9.55;6.30;;;10.50;99.90;;;9.15;100.00;99228.50;5011205;28;20056;-79
2022/11/04 02:55:19;;;;;;;11.65;6.13;;;10.50;99.90;;;9.17;100.00;99227.19;5008763;28;20393;-79
2022/11/04 02:57:49;;;;;;;9.35;5.75;;;10.50;99.90;;;9.20;100.00;99226.69;5010162;28;20088;-80
2022/11/04 03:00:19;;;;;;;11.70;6.38;;;10.60;99.90;;;9.18;100.00;99228.00;5014235;28;20393;-80
2022/11/04 03:02:53;;;;;;;9.63;5.95;;;10.60;99.90;;;9.22;100.00;99234.59;5016494;28;20057;-79
2022/11/04 03:05:27;;;;;;;10.77;6.13;;;10.60;99.90;;;9.20;100.00;99228.59;5020072;28;20029;-80
2022/11/04 03:07:59;;;;;;;9.88;6.30;;;10.60;99.90;;;9.20;100.00;99245.75;5013564;28;20055;-79
2022/11/04 03:10:44;;;;;;;10.02;5.70;;;10.60;99.90;;;9.20;100.00;99247.63;5010308;28;20105;-79
2022/11/04 03:13:17;;;;;;;9.40;5.28;;;10.50;99.90;;;9.18;100.00;99247.88;5012116;28;20034;-79
2022/11/04 03:15:53;;;;;;;7.93;4.95;;;10.60;99.90;;;9.18;100.00;99255.22;5014171;28;20061;-80
2022/11/04 03:18:45;;;;;;;7.30;4.50;;;10.60;99.90;;;9.11;100.00;99257.25;5016350;28;20041;-79
2022/11/04 03:21:14;;;;;;;7.50;3.97;;;10.50;99.90;;;9.12;100.00;99265.16;5015239;28;20540;-79
2022/11/04 03:23:40;;;;;;;6.85;3.72;;;10.50;99.90;;;9.07;100.00;99268.63;5013806;28;20026;-78
2022/11/04 03:26:53;;;;;;;6.68;3.60;;;10.50;99.90;;;9.07;100.00;99281.38;5020785;28;20033;-80
2022/11/04 03:29:34;;;;;;;4.95;2.60;;;10.50;99.90;;;9.05;100.00;99294.41;5015648;28;20124;-79
2022/11/04 03:32:20;;;;;;;4.97;2.83;;;10.40;99.90;;;8.99;100.00;99320.66;5009869;28;20038;-79
2022/11/04 03:34:46;;;;;;;3.92;2.17;;;10.40;99.90;;;8.95;100.00;99324.94;5016295;28;20030;-79
2022/11/04 03:37:12;;;;;;;3.45;2.25;;;10.40;99.90;;;8.97;100.00;99344.56;5010491;28;20037;-78
2022/11/04 03:39:39;;;;;;;3.50;1.83;;;10.40;99.90;;;8.92;100.00;99353.44;5012939;28;20477;-79
2022/11/04 03:42:18;;;;;;;4.25;2.10;;;10.30;99.90;;;8.84;100.00;99353.78;5015800;28;20806;-78
2022/11/04 03:44:52;;;;;;;4.28;1.70;;;10.30;99.90;;;8.79;100.00;99364.56;5009846;28;20101;-79
2022/11/04 03:47:23;;;;;;;2.58;1.52;;;10.20;99.90;;;8.72;100.00;99364.66;5012148;28;20551;-77
2022/11/04 03:49:54;;;;;;;2.05;1.40;;;10.20;99.90;;;8.68;100.00;99377.09;5016349;28;20204;-78
2022/11/04 03:52:20;;;;;;;2.72;1.30;;;10.10;99.90;;;8.61;100.00;99393.50;5009508;28;20037;-78
2022/11/04 03:54:47;;;;;;;2.63;1.30;;;10.00;99.90;;;8.61;100.00;99384.53;5012988;28;20480;-76
2022/11/04 03:57:44;;;;;;;3.15;1.50;;;10.00;99.90;;;8.57;100.00;99388.78;5015236;28;20044;-77
2022/11/04 04:00:21;;;;;;;2.90;1.50;;;9.90;99.90;;;8.52;100.00;99389.47;5016091;28;20053;-77
2022/11/04 04:03:37;;;;;;;4.00;1.60;;;9.90;99.90;;;8.47;100.00;99400.19;5009012;28;20507;-76
2022/11/04 04:06:17;;;;;;;2.20;1.50;;;9.90;99.90;;;8.44;100.00;99387.88;5009535;28;20435;-76
2022/11/04 04:09:20;;;;;;;2.97;1.75;;;9.80;99.90;;;8.38;100.00;99386.13;5013566;28;20045;-76
2022/11/04 04:12:04;;;;;;;3.78;1.60;;;9.80;99.90;;;8.40;100.00;99389.44;5011967;28;20044;-77
2022/11/04 04:14:52;;;;;;;4.80;2.60;;;9.80;99.90;;;8.48;100.00;99399.13;5018732;28;20408;-77
2022/11/04 04:17:38;;;;;;;3.85;2.25;;;9.80;99.90;;;8.59;100.00;99422.81;5010734;28;20515;-79
2022/11/04 04:20:17;;;;;;;4.35;2.75;;;9.90;99.90;;;8.57;100.00;99418.69;5009108;28;20124;-78
2022/11/04 04:22:48;;;;;;;;;;;9.90;99.90;;;8.58;100.00;99417.63;5013756;28;20022;-77
2022/11/04 04:28:03;;;;;;;4.22;2.88;;;10.00;99.90;;;8.65;100.00;99422.97;5009855;28;20083;-82
2022/11/04 04:30:29;;;;;;;4.82;3.05;;;10.10;99.90;;;8.63;100.00;99428.63;5016484;28;20373;-75
2022/11/04 04:33:01;;;;;;;5.80;3.10;;;10.10;99.90;;;8.57;100.00;99438.53;5009040;28;20029;-79
2022/11/04 04:35:42;;;;;;;4.65;3.10;;;10.00;99.90;;;8.49;100.00;99431.56;5008713;28;20037;-78
2022/11/04 04:47:20;;;;;;;3.90;3.33;;;9.90;99.90;;;8.41;100.00;99463.66;5008786;28;20102;-78
2022/11/04 04:49:57;;;;;;;5.28;3.33;;;9.80;99.90;;;8.46;100.00;99459.16;5011425;28;20034;-79
2022/11/04 04:52:31;;;;;;;4.82;3.85;;;9.90;99.90;;;8.47;100.00;99455.38;5012431;28;20399;-76
2022/11/04 04:54:57;;;;;;;7.07;4.68;;;9.90;99.90;;;8.49;100.00;99469.63;5017703;28;20037;-77
2022/11/04 04:57:22;;;;;;;5.13;4.15;;;9.90;99.90;;;8.56;100.00;99472.22;5013294;28;20168;-77
2022/11/04 04:59:48;;;;;;;6.45;4.35;;;10.00;99.90;;;8.56;100.00;99476.84;5009999;28;20033;-77
2022/11/04 05:02:14;;;;;;;5.53;4.20;;;10.00;99.90;;;8.62;100.00;99473.19;5011659;28;20034;-77
2022/11/04 05:04:40;;;;;;;5.03;4.38;;;10.00;99.90;;;8.69;100.00;99470.38;5008650;28;20033;-77
2022/11/04 05:07:06;;;;;;;6.78;4.93;;;10.10;99.90;;;8.76;100.00;99476.53;5006289;28;20037;-77
2022/11/04 05:09:32;;;;;;;6.90;4.80;;;10.20;99.90;;;8.74;100.00;99470.50;5011629;28;20404;-77
2022/11/04 05:11:58;;;;;;;5.50;4.40;;;10.20;99.90;;;8.76;100.00;99465.66;5008311;28;20034;-76
2022/11/04 05:14:24;;;;;;;5.32;4.60;;;10.20;99.90;;;8.64;100.00;99465.63;5008164;28;20038;-77
2022/11/04 05:16:50;;;;;;;5.82;4.03;;;10.10;99.90;;;8.59;100.00;99460.06;5009377;28;20042;-76
2022/11/04 05:19:16;;;;;;;7.03;4.57;;;10.00;99.90;;;8.55;100.00;99464.31;5007703;28;20124;-76
2022/11/04 05:21:41;;;;;;;5.72;4.53;;;9.90;99.90;;;8.49;100.00;99472.34;5009133;28;20659;-75
2022/11/04 05:24:07;;;;;;;6.38;4.30;;;9.90;99.90;;;8.41;100.00;99486.22;5013069;28;20189;-76
2022/11/04 05:26:33;;;;;;;5.15;4.35;;;9.80;99.90;;;8.38;100.00;99488.56;5008035;28;20048;-76
2022/11/04 05:28:59;;;;;;;9.60;4.43;;;9.80;99.90;;;8.26;100.00;99491.25;5008711;28;20034;-77
2022/11/04 05:31:24;;;;;;;7.05;4.85;;;9.70;99.90;;;8.26;100.00;99493.97;5012315;28;20099;-77
2022/11/04 05:33:50;;;;;;;5.88;4.60;;;9.70;99.90;;;8.20;100.00;99493.78;5007919;28;20574;-77
2022/11/04 05:36:16;;;;;;;6.13;4.60;;;9.60;99.90;;;8.25;100.00;99520.28;5014238;28;20056;-79
2022/11/04 05:38:43;;;;;;;5.60;5.00;;;9.60;99.90;;;8.20;100.00;99529.13;5013754;28;20080;-76
2022/11/04 05:41:11;;;;;;;7.43;5.43;;;9.60;99.90;;;8.11;100.00;99525.06;5007570;28;20088;-77
2022/11/04 05:43:36;;;;;;;;;;;9.50;99.90;;;8.05;100.00;99523.25;5008831;28;20041;-78
2022/11/04 05:46:03;;;;;;;7.85;5.38;;;9.40;99.90;;;7.93;100.00;99515.06;5010756;28;20317;-77
2022/11/04 05:48:29;;;;;;;6.75;5.50;;;9.40;99.90;;;7.90;100.00;99516.31;5011203;28;20535;-79
2022/11/04 05:50:55;;;;;;;6.60;5.45;;;9.20;99.90;;;7.82;100.00;99530.22;5014180;28;20448;-77
2022/11/04 05:53:21;;;;;;;6.60;5.28;;;9.20;99.90;;;7.74;100.00;99542.19;5010518;28;20064;-77
2022/11/04 05:55:50;;;;;;;6.78;5.40;;;9.20;99.90;;;7.63;100.00;99546.47;5011332;28;20029;-77
2022/11/04 05:58:15;;;;;;;7.68;5.25;;;9.00;99.90;;;7.47;100.00;99547.88;5011945;28;20036;-77
2022/11/04 06:00:41;;;;;;;8.98;5.38;;;8.90;99.90;;;7.37;100.00;99541.31;5011391;28;20050;-77
2022/11/04 06:03:07;;;;;;;9.43;5.85;;;8.80;99.90;;;7.40;100.00;99544.41;5011075;28;20113;-76
2022/11/04 06:05:33;;;;;;;7.22;6.30;;;8.80;99.90;;;7.40;100.00;99543.56;5011236;28;20620;-77
2022/11/04 06:07:59;;;;;;;7.32;6.50;;;8.80;99.90;;;7.41;100.00;99556.09;5011534;28;20026;-78
2022/11/04 06:10:25;;;;;;;7.88;6.50;;;8.80;99.90;;;7.40;100.00;99551.72;5011416;28;20381;-76
2022/11/04 06:12:51;;;;;;;7.55;6.07;;;8.80;99.90;;;7.28;100.00;99559.75;5020539;28;20037;-78
2022/11/04 06:15:17;;;;;;;9.73;6.15;;;8.70;99.90;;;7.28;100.00;99567.88;5013230;28;20098;-77
2022/11/04 06:17:42;;;;;;;7.90;5.75;;;8.60;99.90;;;7.58;100.00;99578.09;5019172;28;20399;-79
2022/11/04 06:20:09;;;;;;;7.47;5.35;;;8.90;99.90;;;7.52;100.00;99574.38;5013472;28;20033;-77
2022/11/04 06:22:35;;;;;;;7.63;6.30;;;8.90;99.90;;;7.42;100.00;99576.75;5010485;28;20545;-77
2022/11/04 06:25:01;;;;;;;7.82;5.93;;;8.80;99.90;;;7.54;100.00;99579.56;5016893;28;20056;-78
2022/11/04 06:27:26;;;;;;;6.95;5.20;;;8.80;99.90;;;7.55;100.00;99584.78;5015617;28;20089;-77
2022/11/04 06:29:52;;;;;;;7.53;5.85;;;8.90;99.90;;;7.66;100.00;99588.66;5015490;28;20030;-77
2022/11/04 06:32:18;;;;;;;7.82;4.90;;;9.00;99.90;;;7.70;100.00;99591.75;5017228;28;20034;-77
2022/11/04 06:34:45;;;;;;;9.10;5.82;;;9.00;99.90;;;7.74;100.00;99603.81;5014771;28;20026;-78
2022/11/04 06:37:10;;;;;;;7.22;5.35;;;9.10;99.90;;;7.92;100.00;99603.81;5010291;28;20053;-77
2022/11/04 06:39:36;;;;;;;11.48;5.60;;;9.20;99.90;;;8.00;100.00;99615.47;5023545;28;20148;-78
2022/11/04 06:42:03;;;;;;;7.20;4.85;;;9.30;99.90;;;8.04;100.00;99619.41;5012622;28;20361;-78
2022/11/04 06:44:30;;;;;;;9.32;5.55;;;9.40;99.90;;;8.06;100.00;99625.44;5008224;28;20077;-79
2022/11/04 06:46:56;;;;;;;5.65;4.72;;;9.40;99.90;;;8.07;100.00;99633.34;5019317;28;20034;-79
2022/11/04 06:49:22;;;;;;;6.97;5.07;;;9.50;99.90;;;8.08;100.00;99636.91;5010683;28;20045;-77
2022/11/04 06:51:48;;;;;;;6.90;4.90;;;9.50;99.90;;;8.06;100.00;99620.81;5010803;28;20214;-76
2022/11/04 06:54:15;;;;;;;8.50;5.30;;;9.50;99.90;;;8.11;100.00;99606.56;5009479;28;20115;-76
2022/11/04 06:56:42;;;;;;;6.18;4.72;;;9.50;99.90;;;8.16;100.00;99619.47;5016363;28;20263;-80
2022/11/04 06:59:14;;;;;;;7.22;4.95;;;9.60;99.90;;;8.25;100.00;99631.69;5009709;28;20034;-78
2022/11/04 07:01:40;;;;;;;9.27;4.97;;;9.70;99.90;;;8.35;100.00;99639.31;5006323;28;20424;-78
2022/11/04 07:04:06;;;;;;;6.03;4.78;;;9.70;99.90;;;8.41;100.00;99641.13;5018552;28;20033;-77
2022/11/04 07:06:32;;;;;;;8.50;4.90;;;9.80;99.90;;;8.48;100.00;99643.78;5013276;28;20420;-78
2022/11/04 07:09:01;;;;;;;6.85;5.00;;;9.80;99.90;;;8.52;100.00;99653.16;5007855;28;20026;-80
2022/11/04 07:11:30;;;;;;;7.70;4.93;;;9.90;99.90;;;8.58;100.00;99638.66;5012783;28;20041;-78
2022/11/04 07:13:56;;;;;;;5.65;4.25;;;10.00;99.90;;;8.63;100.00;99640.69;5013506;28;20040;-79
2022/11/04 07:16:22;;;;;;;6.68;4.40;;;10.00;99.90;;;8.63;100.00;99641.53;5008383;28;20074;-78
2022/11/04 07:18:49;;;;;;;9.35;5.05;;;10.10;99.90;;;8.69;100.00;99642.50;5010485;28;20532;-78
2022/11/04 07:21:15;;;;;;;7.63;4.43;;;10.10;99.90;;;8.72;100.00;99639.31;5011807;28;20059;-78
2022/11/04 07:23:41;;;;;;;7.43;4.55;;;10.10;99.90;;;8.78;100.00;99643.84;5012042;28;20461;-78
2022/11/04 07:26:10;;;;;;;6.57;4.45;;;10.10;99.90;;;8.82;100.00;99643.38;5012563;28;20030;-78
2022/11/04 07:28:37;;;;;;;9.32;5.15;;;10.20;99.90;;;8.82;100.00;99627.88;5011002;28;20049;-77
2022/11/04 07:31:07;;;;;;;10.05;5.10;;;10.20;99.90;;;8.78;100.00;99630.25;5012966;28;20026;-78
2022/11/04 07:33:33;;;;;;;7.35;5.10;;;10.20;99.90;;;8.84;100.00;99646.72;5012593;28;20037;-81
2022/11/04 07:36:05;;;;;;;7.03;5.25;;;10.20;99.90;;;8.86;100.00;99636.44;5009724;28;20069;-78
2022/11/04 07:38:31;;;;;;;6.75;4.90;;;10.30;99.90;;;8.90;100.00;99637.63;5009409;28;20044;-79
2022/11/04 07:40:58;;;;;;;8.10;4.95;;;10.30;99.90;;;8.90;100.00;99643.91;5009264;28;20026;-78
2022/11/04 07:43:24;;;;;;;6.73;4.77;;;10.30;99.90;;;8.89;100.00;99650.41;5008740;28;20025;-79
2022/11/04 07:46:13;;;;;;;8.65;5.15;;;10.30;99.90;;;8.87;100.00;99651.69;5027269;28;20283;-78
2022/11/04 07:48:39;;;;;;;7.70;5.22;;;10.30;99.90;;;8.83;100.00;99659.47;5010711;28;20587;-78
2022/11/04 07:51:09;;;;;;;6.28;4.70;;;10.20;99.90;;;8.83;100.00;99666.81;5012657;28;20084;-78
2022/11/04 07:53:35;;;;;;;7.35;4.85;;;10.20;99.90;;;8.83;100.00;99669.53;5014395;28;20033;-78
2022/11/04 07:56:06;;;;;;;8.50;5.22;;;10.20;99.90;;;8.85;100.00;99673.66;5013370;28;20033;-78
2022/11/04 07:58:33;;;;;;;8.00;4.97;;;10.30;99.90;;;8.90;100.00;99675.69;5019993;28;20503;-78
2022/11/04 08:01:07;;;;;;;8.48;5.25;;;10.30;99.90;;;8.98;100.00;99671.84;5017109;28;20026;-78
2022/11/04 08:03:35;;;;;;;23.05;12.02;;;10.40;99.90;;;9.04;100.00;99679.06;5017602;28;20326;-78
2022/11/04 08:06:04;;;;;;;7.88;5.25;;;10.40;99.90;;;9.05;100.00;99670.69;5014055;28;20029;-81
2022/11/04 08:08:30;;;;;;;12.98;5.50;;;10.50;99.90;;;9.17;100.00;99678.06;5017551;28;20079;-79
2022/11/04 08:11:05;;;;;;;6.60;4.85;;;10.50;99.90;;;9.23;100.00;99674.41;5016658;28;20476;-79
2022/11/04 08:13:34;;;;;;;7.97;4.85;;;10.60;99.90;;;9.30;100.00;99683.31;5016364;28;20034;-79
2022/11/04 08:16:08;;;;;;;6.88;4.72;;;10.70;99.90;;;9.42;100.00;99693.41;5011521;28;20050;-79
2022/11/04 08:18:34;;;;;;;9.63;5.03;;;10.80;99.90;;;9.51;100.00;99702.88;5023688;28;20188;-77
2022/11/04 08:21:02;;;;;;;7.20;4.38;;;10.80;99.90;;;9.46;100.00;99702.75;5013678;28;20017;-78
2022/11/04 08:23:29;;;;;;;;;;;10.90;99.90;;;9.53;100.00;99700.75;5018482;28;20060;-78
2022/11/04 08:25:56;;;;;;;9.15;4.65;;;10.90;99.90;;;9.59;100.00;99720.78;5015830;28;19920;-79
2022/11/04 08:28:23;;;;;;;7.53;4.15;;;11.00;99.90;;;9.64;100.00;99723.63;5015211;28;20033;-79
2022/11/04 08:31:14;;;;;;;7.93;3.67;;;11.00;99.90;;;9.68;100.00;99727.56;5017989;28;20037;-78
2022/11/04 08:33:41;;;;;;;9.18;4.30;;;11.10;99.90;;;9.60;100.00;99734.19;5016784;28;20070;-79
2022/11/04 08:36:19;;;;;;;7.13;3.83;;;11.00;99.90;;;9.64;100.00;99739.97;5009238;28;20045;-79
2022/11/04 08:38:45;;;;;;;6.83;3.87;;;11.00;99.90;;;9.60;100.00;99736.06;5016056;28;20041;-78
2022/11/04 08:41:14;;;;;;;7.57;3.95;;;11.00;99.90;;;9.53;100.00;99738.88;5011006;28;20609;-78
2022/11/04 08:43:41;;;;;;;8.38;3.95;;;11.00;99.90;;;9.54;100.00;99737.81;5012096;28;20029;-77
2022/11/04 08:46:09;;;;;;;7.18;4.15;;;10.90;99.90;;;9.61;100.00;99737.72;5018483;28;20436;-78
2022/11/04 08:48:38;;;;;;;7.75;3.88;;;11.00;99.90;;;9.66;100.00;99731.59;5024057;28;20040;-79
2022/11/04 08:51:11;;;;;;;6.47;3.67;;;11.10;99.90;;;9.73;100.00;99727.69;5014299;28;20673;-78
2022/11/04 08:53:37;;;;;;;9.07;3.90;;;11.10;99.90;;;9.83;100.00;99727.13;5008869;28;20038;-76
2022/11/04 08:56:18;;;;;;;7.47;3.40;;;11.20;99.90;;;9.98;100.00;99723.09;5015909;28;20274;-77
2022/11/04 08:58:44;;;;;;;7.60;3.80;;;11.30;99.90;;;10.06;100.00;99729.03;5011097;28;20034;-78
2022/11/04 09:01:11;;;;;;;7.20;3.47;;;11.40;99.90;;;10.18;100.00;99730.94;5014675;28;20068;-78
2022/11/04 09:03:39;;;;;;;6.95;3.63;;;11.50;99.90;;;10.25;100.00;99733.53;5014513;28;20029;-78
2022/11/04 09:06:06;;;;;;;;;;;11.60;99.90;;;10.17;100.00;99742.91;5013741;28;20055;-78
2022/11/04 09:08:32;;;;;;;6.25;3.38;;;11.60;99.90;;;10.09;99.94;99741.38;5016336;28;19928;-79
2022/11/04 09:10:58;;;;;;;6.88;3.58;;;11.60;99.90;;;10.08;100.00;99742.44;5014630;28;20038;-78
2022/11/04 09:13:24;;;;;;;7.65;3.75;;;11.50;99.90;;;10.11;100.00;99744.69;5005740;28;20030;-77
2022/11/04 09:15:50;;;;;;;6.40;3.50;;;11.50;99.90;;;10.19;100.00;99744.34;5007771;28;20582;-78
2022/11/04 09:18:16;;;;;;;7.82;3.83;;;11.60;99.90;;;10.14;100.00;99754.28;5016320;28;20036;-79
2022/11/04 09:20:42;;;;;;;7.72;4.00;;;11.60;99.90;;;10.16;100.00;99747.53;5018469;28;20029;-77
2022/11/04 09:23:17;;;;;;;11.65;4.47;;;11.60;99.90;;;10.19;100.00;99740.75;5012498;28;20438;-78
2022/11/04 09:25:43;;;;;;;7.80;3.70;;;11.60;99.90;;;10.10;100.00;99736.75;5015962;28;20025;-78
2022/11/04 09:28:09;;;;;;;6.20;3.95;;;11.50;99.90;;;9.96;100.00;99698.84;5015931;28;20037;-78
2022/11/04 09:30:36;;;;;;;8.23;3.75;;;11.50;99.90;;;10.16;100.00;99731.19;5009121;28;20296;-80
2022/11/04 09:33:03;;;;;;;8.07;4.13;;;11.50;99.90;;;10.31;100.00;99727.13;5020943;28;20087;-79
2022/11/04 09:35:29;;;;;;;5.78;3.60;;;11.60;99.90;;;10.39;100.00;99728.69;5018179;28;20036;-80
2022/11/04 09:37:55;;;;;;;8.93;3.85;;;11.80;99.90;;;10.48;100.00;99739.03;5015947;28;20030;-78
2022/11/04 09:40:24;;;;;;;9.13;3.80;;;11.90;99.90;;;10.68;97.55;99734.25;5012243;28;20423;-79
2022/11/04 09:43:05;;;;;;;9.23;4.03;;;12.00;99.90;;;10.79;96.44;99744.34;5011986;28;20321;-80
2022/11/04 09:45:32;;;;;;;8.23;4.05;;;12.20;99.90;;;10.81;95.06;99736.72;5015077;28;20121;-79
2022/11/04 09:48:18;;;;;;;7.82;4.05;;;12.20;99.90;;;10.80;96.18;99740.53;5014317;28;20506;-80
2022/11/04 09:50:54;;;;;;;7.65;3.55;;;12.20;99.90;;;10.76;94.70;99742.09;5016194;28;20033;-79
2022/11/04 09:53:30;;;;;;;9.90;3.83;;;12.20;99.90;;;10.70;95.16;99732.94;5011378;28;20459;-78
2022/11/04 09:56:08;;;;;;;8.48;3.70;;;12.10;99.90;;;10.56;94.52;99739.72;5016027;28;20038;-80
2022/11/04 09:58:37;;;;;;;7.55;3.63;;;12.00;99.90;;;10.43;96.51;99732.63;5015521;28;20038;-79
2022/11/04 10:01:27;;;;;;;6.28;3.60;;;11.90;99.90;;;10.36;97.00;99728.09;5016924;28;20166;-79
2022/11/04 10:04:36;;;;;;;6.00;3.53;;;11.80;99.90;;;10.41;96.74;99724.69;5018476;28;20026;-78
2022/11/04 10:20:37;;;;;;;;;;;;;;;;;;;;;
2022/11/04 10:23:43;;;;;;;4.53;2.75;;;12.80;99.90;;;11.72;81.81;99732.44;4999197;28;20042;-80
2022/11/04 10:27:26;;;;;;;;;;;;;;;;;;;;;
2022/11/04 10:30:00;;;;;;;4.05;2.85;;;13.20;99.90;;;12.12;76.64;99729.84;4996594;28;20251;-78
2022/11/04 10:32:49;;;;;;;6.05;2.60;;;13.60;99.90;;;12.36;74.01;99766.00;4998156;28;20038;-80
2022/11/04 10:35:34;;;;;;;5.32;2.60;;;13.80;99.90;;;12.77;75.63;99787.66;4998764;28;20488;-79
2022/11/04 10:38:25;;;;;;;7.53;2.83;;;14.10;99.90;;;14.03;68.87;99781.44;4997458;28;20061;-78
2022/11/04 10:40:53;;;;;;;4.30;2.50;;;14.90;99.90;;;14.04;66.38;99801.44;4995815;28;20065;-80
2022/11/04 10:43:34;;;;;;;10.15;3.20;;;15.40;99.90;;;13.24;68.67;99797.28;4999106;28;20639;-77
2022/11/04 10:46:47;;;;;;;5.78;3.08;;;15.00;99.90;;;12.95;71.44;99794.75;4999332;28;20034;-81
2022/11/04 10:49:25;;;;;;;4.68;2.47;;;14.50;99.90;;;13.57;69.78;99792.78;4994432;28;20034;-79
2022/11/04 10:51:54;;;;;;;5.27;2.50;;;14.80;99.90;;;13.70;69.62;99794.28;4993995;28;20038;-78
2022/11/04 10:54:20;;;;;;;7.88;2.80;;;15.00;99.90;;;13.49;67.26;99793.22;4996785;28;20279;-79
2022/11/04 10:56:52;;;;;;;5.57;2.72;;;14.90;99.90;;;13.26;65.86;99803.38;4990461;28;20034;-82
2022/11/04 10:59:35;;;;;;;5.38;2.50;;;14.80;99.90;;;12.71;70.38;99799.63;4996200;28;20120;-81
2022/11/04 11:02:02;;;;;;;6.18;2.28;;;14.40;99.90;;;12.69;72.11;99801.78;4992125;28;20034;-78
2022/11/04 11:04:35;;;;;;;4.97;2.45;;;14.30;99.90;;;12.45;70.92;99799.25;4990995;28;20037;-79
2022/11/04 11:07:06;;;;;;;7.47;2.60;;;14.00;99.90;;;12.26;71.44;99787.75;4995702;28;20053;-81
2022/11/04 11:09:40;;;;;;;5.60;2.33;;;13.70;99.90;;;12.07;72.48;99793.44;4993807;28;20045;-80
2022/11/04 11:12:29;;;;;;;5.78;2.20;;;13.50;99.90;;;13.08;68.11;99788.91;4999422;28;20421;-80
2022/11/04 11:14:57;;;;;;;5.03;2.25;;;14.10;99.90;;;12.99;68.37;99779.47;4999968;28;20030;-80
2022/11/04 11:17:32;;;;;;;;;;;14.40;99.90;;;12.50;70.06;99791.94;5012995;28;20057;-81
2022/11/04 11:20:26;;;;;;;4.90;2.20;;;14.20;99.90;;;13.44;64.52;99769.34;5017832;28;19913;-82
2022/11/04 11:22:53;;;;;;;5.43;2.30;;;14.60;99.90;;;13.21;67.22;99776.75;5009196;28;20126;-79
2022/11/04 11:25:30;;;;;;;7.43;2.95;;;15.00;99.90;;;13.08;68.14;99790.81;5014480;28;20037;-79
2022/11/04 11:28:04;;;;;;;5.30;2.40;;;14.80;99.90;;;12.76;71.44;99780.53;5015863;28;20040;-79